Time;durP1;ratioP1;P1;durP2;ratioP2;P2;SDS_P1;SDS_P2;PMS_P1;PMS_P2;Temp;Humidity;BMP_temperature;BMP_pressure;BME280_temperature;BME280_humidity;BME280_pressure;Samples;Min_cycle;Max_cycle;Signal;HPM_P1;HPM_P2
2023/04/13 00:00:43;;;;;;;2.60;1.58;;;8.70;99.90;;;;;;4766355;30;20043;-69
2023/04/13 00:03:11;;;;;;;4.53;1.73;;;8.60;99.90;;;;;;4768471;30;20530;-69
2023/04/13 00:05:38;;;;;;;4.38;1.40;;;8.60;99.90;;;;;;4763575;30;20056;-70
2023/04/13 00:08:07;;;;;;;2.15;1.42;;;8.50;99.90;;;;;;4766977;30;20467;-70
2023/04/13 00:10:40;;;;;;;2.10;1.38;;;8.50;99.90;;;;;;4760000;30;20551;-70
2023/04/13 00:13:09;;;;;;;2.13;1.35;;;8.50;99.90;;;;;;4757137;30;20531;-71
2023/04/13 00:15:40;;;;;;;2.28;1.33;;;8.50;99.90;;;;;;4766555;30;20050;-70
2023/04/13 00:18:09;;;;;;;1.92;1.40;;;8.50;99.90;;;;;;4765092;30;20064;-70
2023/04/13 00:20:37;;;;;;;1.63;1.35;;;8.50;99.90;;;;;;4758513;30;20047;-69
2023/04/13 00:23:05;;;;;;;1.83;1.38;;;8.50;99.90;;;;;;4761201;30;20219;-70
2023/04/13 00:25:32;;;;;;;2.47;1.30;;;8.50;99.90;;;;;;4755750;30;20048;-70
2023/04/13 00:28:02;;;;;;;2.67;1.40;;;8.50;99.90;;;;;;4754568;30;20036;-70
2023/04/13 00:30:30;;;;;;;1.50;1.35;;;8.50;99.90;;;;;;4760742;30;20131;-70
2023/04/13 00:32:57;;;;;;;1.92;1.35;;;8.40;99.90;;;;;;4762645;30;20078;-70
2023/04/13 00:35:25;;;;;;;1.80;1.30;;;8.40;99.90;;;;;;4759098;30;20054;-70
2023/04/13 00:37:53;;;;;;;4.07;1.60;;;8.40;99.90;;;;;;4747887;30;20047;-71
2023/04/13 00:40:23;;;;;;;2.63;1.20;;;8.30;99.90;;;;;;4761464;30;20495;-70
2023/04/13 00:42:52;;;;;;;1.90;1.40;;;8.30;99.90;;;;;;4766659;30;20511;-71
2023/04/13 00:45:20;;;;;;;1.73;1.23;;;8.20;99.90;;;;;;4765704;30;20047;-70
2023/04/13 00:47:49;;;;;;;2.42;1.40;;;8.20;99.90;;;;;;4757724;30;20598;-70
2023/04/13 00:50:22;;;;;;;1.75;1.40;;;8.10;99.90;;;;;;4766425;30;20040;-71
2023/04/13 00:52:49;;;;;;;1.80;1.40;;;8.20;99.90;;;;;;4780444;30;20078;-71
2023/04/13 00:55:20;;;;;;;2.17;1.40;;;8.10;99.90;;;;;;4765973;30;20511;-70
2023/04/13 00:57:51;;;;;;;4.50;1.52;;;8.00;99.90;;;;;;4779832;30;20471;-70
2023/04/13 01:00:20;;;;;;;1.70;1.35;;;8.00;99.90;;;;;;4766868;30;20174;-70
2023/04/13 01:02:49;;;;;;;2.15;1.40;;;8.00;99.90;;;;;;4766789;30;20574;-70
2023/04/13 01:05:18;;;;;;;3.33;1.60;;;8.00;99.90;;;;;;4766904;30;20051;-70
2023/04/13 01:08:11;;;;;;;1.80;1.50;;;8.00;99.90;;;;;;4774168;30;20040;-70
2023/04/13 01:10:46;;;;;;;2.38;1.42;;;7.90;99.90;;;;;;4757635;30;20045;-70
2023/04/13 01:13:29;;;;;;;1.92;1.50;;;7.80;99.90;;;;;;4762720;30;20467;-70
2023/04/13 01:16:07;;;;;;;2.05;1.40;;;7.80;99.90;;;;;;4765584;30;20052;-70
2023/04/13 01:18:39;;;;;;;1.92;1.40;;;7.80;99.90;;;;;;4781183;30;20400;-70
2023/04/13 01:21:13;;;;;;;1.75;1.30;;;7.80;99.90;;;;;;4769365;30;20112;-70
2023/04/13 01:24:01;;;;;;;2.90;1.30;;;7.70;99.90;;;;;;4774336;30;20514;-71
2023/04/13 01:26:42;;;;;;;2.67;1.40;;;7.70;99.90;;;;;;4763560;30;20420;-71
2023/04/13 01:29:10;;;;;;;1.40;1.20;;;7.70;99.90;;;;;;4767810;30;20124;-71
2023/04/13 01:31:39;;;;;;;1.55;1.30;;;7.60;99.90;;;;;;4773569;30;20507;-71
2023/04/13 01:34:08;;;;;;;1.30;1.20;;;7.60;99.90;;;;;;4764350;30;20071;-73
2023/04/13 01:36:38;;;;;;;4.45;1.50;;;7.60;99.90;;;;;;4765451;30;20123;-70
2023/04/13 01:39:06;;;;;;;1.75;1.20;;;7.60;99.90;;;;;;4774097;30;20510;-70
2023/04/13 01:41:35;;;;;;;2.30;1.40;;;7.60;99.90;;;;;;4764262;30;20545;-71
2023/04/13 01:44:03;;;;;;;3.13;1.92;;;7.60;99.90;;;;;;4764260;30;20500;-71
2023/04/13 01:46:34;;;;;;;2.13;1.30;;;7.60;99.90;;;;;;4773028;30;20059;-70
2023/04/13 01:49:09;;;;;;;2.45;1.30;;;7.50;99.90;;;;;;4763523;30;20044;-71
2023/04/13 01:51:49;;;;;;;1.52;1.23;;;7.50;99.90;;;;;;4766133;30;20356;-70
2023/04/13 01:54:24;;;;;;;2.42;1.30;;;7.50;99.90;;;;;;4776873;30;20044;-70
2023/04/13 01:56:56;;;;;;;2.22;1.40;;;7.60;99.90;;;;;;4742494;30;20055;-70
2023/04/13 01:59:23;;;;;;;2.20;1.30;;;7.50;99.90;;;;;;4761984;30;20079;-70
2023/04/13 02:01:51;;;;;;;1.80;1.30;;;7.50;99.90;;;;;;4767906;30;20056;-70
2023/04/13 02:04:19;;;;;;;4.03;1.42;;;7.50;99.90;;;;;;4756012;30;20074;-70
2023/04/13 02:06:50;;;;;;;1.83;1.33;;;7.50;99.90;;;;;;4751167;30;20529;-71
2023/04/13 02:09:24;;;;;;;2.42;1.50;;;7.50;99.90;;;;;;4774559;30;20040;-71
2023/04/13 02:11:54;;;;;;;2.85;1.50;;;7.40;99.90;;;;;;4766133;30;20035;-72
2023/04/13 02:14:21;;;;;;;3.15;1.50;;;7.40;99.90;;;;;;4752898;30;20052;-69
2023/04/13 02:16:49;;;;;;;2.78;1.75;;;7.40;99.90;;;;;;4766784;30;20440;-69
2023/04/13 02:19:17;;;;;;;3.33;1.60;;;7.30;99.90;;;;;;4783342;30;20134;-69
2023/04/13 02:21:44;;;;;;;5.55;1.42;;;7.30;99.90;;;;;;4767471;30;20135;-70
2023/04/13 02:24:13;;;;;;;3.40;1.50;;;7.30;99.90;;;;;;4761975;30;20136;-70
2023/04/13 02:26:40;;;;;;;2.58;1.60;;;7.30;99.90;;;;;;4744713;30;20079;-73
2023/04/13 02:29:08;;;;;;;2.47;1.60;;;7.20;99.90;;;;;;4753750;30;20048;-69
2023/04/13 02:31:36;;;;;;;3.55;1.40;;;7.20;99.90;;;;;;4756821;30;20048;-70
2023/04/13 02:34:04;;;;;;;2.45;1.60;;;7.20;99.90;;;;;;4779244;30;20487;-70
2023/04/13 02:36:32;;;;;;;2.92;1.50;;;7.10;99.90;;;;;;4765778;30;20051;-70
2023/04/13 02:39:05;;;;;;;1.65;1.33;;;7.10;99.90;;;;;;4761006;30;20153;-69
2023/04/13 02:41:33;;;;;;;1.83;1.38;;;7.10;99.90;;;;;;4766411;30;20058;-71
2023/04/13 02:44:01;;;;;;;3.55;1.42;;;7.10;99.90;;;;;;4752735;30;20466;-70
2023/04/13 02:46:36;;;;;;;2.97;1.52;;;7.10;99.90;;;;;;4774919;30;20123;-70
2023/04/13 02:49:09;;;;;;;2.40;1.60;;;7.10;99.90;;;;;;4760010;30;20098;-71
2023/04/13 02:51:42;;;;;;;2.42;1.45;;;7.10;99.90;;;;;;4768998;30;20052;-71
2023/04/13 02:54:10;;;;;;;5.88;1.80;;;7.10;99.90;;;;;;4774446;30;20130;-71
2023/04/13 02:56:43;;;;;;;2.75;2.00;;;7.10;99.90;;;;;;4773199;30;20138;-71
2023/04/13 02:59:11;;;;;;;2.55;1.65;;;7.00;99.90;;;;;;4774704;30;20051;-71
2023/04/13 03:01:38;;;;;;;2.92;1.70;;;7.00;99.90;;;;;;4765265;30;20392;-70
2023/04/13 03:04:09;;;;;;;4.65;1.80;;;7.00;99.90;;;;;;4754240;30;20105;-70
2023/04/13 03:06:36;;;;;;;3.33;1.80;;;7.00;99.90;;;;;;4766800;30;20054;-70
2023/04/13 03:09:04;;;;;;;2.80;1.80;;;7.00;99.90;;;;;;4759472;30;20048;-69
2023/04/13 03:11:42;;;;;;;3.58;1.77;;;7.00;99.90;;;;;;4747959;30;20057;-71
2023/04/13 03:14:19;;;;;;;2.50;1.63;;;7.10;99.90;;;;;;4761211;30;20472;-69
2023/04/13 03:16:50;;;;;;;2.83;1.65;;;7.10;99.90;;;;;;4750208;30;20060;-70
2023/04/13 03:19:22;;;;;;;2.47;1.63;;;7.00;99.90;;;;;;4759252;30;20491;-70
2023/04/13 03:21:49;;;;;;;2.92;1.70;;;7.00;99.90;;;;;;4766937;30;20499;-70
2023/04/13 03:24:21;;;;;;;2.85;1.80;;;7.00;99.90;;;;;;4765368;30;20052;-70
2023/04/13 03:26:48;;;;;;;2.25;1.55;;;6.90;99.90;;;;;;4758299;30;20518;-69
2023/04/13 03:29:23;;;;;;;4.20;1.70;;;6.90;99.90;;;;;;4772124;30;20040;-69
2023/04/13 03:31:50;;;;;;;2.47;1.60;;;6.80;99.90;;;;;;4763743;30;20048;-71
2023/04/13 03:34:18;;;;;;;3.17;1.90;;;6.90;99.90;;;;;;4765935;30;20070;-70
2023/04/13 03:36:47;;;;;;;2.92;1.60;;;6.80;99.90;;;;;;4779707;30;20476;-71
2023/04/13 03:39:18;;;;;;;3.75;1.70;;;6.90;99.90;;;;;;4769263;29;20064;-69
2023/04/13 03:41:45;;;;;;;2.22;1.60;;;6.80;99.90;;;;;;4765394;30;20420;-71
2023/04/13 03:44:13;;;;;;;4.35;1.67;;;6.80;99.90;;;;;;4758820;30;20062;-71
2023/04/13 03:46:41;;;;;;;3.05;1.77;;;6.80;99.90;;;;;;4750969;30;20055;-71
2023/04/13 03:49:20;;;;;;;4.28;1.80;;;6.80;99.90;;;;;;4764204;30;20043;-70
2023/04/13 03:51:47;;;;;;;5.15;1.70;;;6.70;99.90;;;;;;4763227;30;20496;-70
2023/04/13 03:54:15;;;;;;;3.83;1.67;;;6.70;99.90;;;;;;4750733;30;20142;-71
2023/04/13 03:56:44;;;;;;;4.50;1.70;;;6.60;99.90;;;;;;4764569;30;20052;-71
2023/04/13 03:59:11;;;;;;;2.28;1.50;;;6.70;99.90;;;;;;4762653;30;20126;-71
2023/04/13 04:01:39;;;;;;;2.78;1.58;;;6.70;99.90;;;;;;4757696;30;20051;-70
2023/04/13 04:04:06;;;;;;;2.88;1.65;;;6.70;99.90;;;;;;4762430;30;20044;-70
2023/04/13 04:06:34;;;;;;;6.68;1.80;;;6.70;99.90;;;;;;4754748;30;20084;-70
2023/04/13 04:09:11;;;;;;;3.05;1.70;;;6.60;99.90;;;;;;4751350;30;20176;-70
2023/04/13 04:11:45;;;;;;;2.45;1.40;;;6.60;99.90;;;;;;4755176;30;20170;-69
2023/04/13 04:14:17;;;;;;;2.78;1.77;;;6.70;99.90;;;;;;4762231;30;20126;-70
2023/04/13 04:16:53;;;;;;;3.78;1.67;;;6.70;99.90;;;;;;4777734;30;20100;-71
2023/04/13 04:19:22;;;;;;;3.20;1.65;;;6.70;99.90;;;;;;4750488;30;20544;-70
2023/04/13 04:21:51;;;;;;;3.65;1.70;;;6.70;99.90;;;;;;4765056;30;20392;-71
2023/04/13 04:24:21;;;;;;;4.18;1.98;;;6.70;99.90;;;;;;4761455;30;20096;-70
2023/04/13 04:26:54;;;;;;;3.88;2.10;;;6.70;99.90;;;;;;4775848;30;20468;-69
2023/04/13 04:29:28;;;;;;;8.00;2.40;;;6.60;99.90;;;;;;4761038;30;20636;-71
2023/04/13 04:31:56;;;;;;;4.70;2.40;;;6.70;99.90;;;;;;4773116;30;20529;-70
2023/04/13 04:34:24;;;;;;;6.38;2.15;;;6.70;99.90;;;;;;4779948;30;20594;-71
2023/04/13 04:36:52;;;;;;;5.40;2.45;;;6.70;99.90;;;;;;4765803;30;20108;-70
2023/04/13 04:39:25;;;;;;;;;;;6.70;99.90;;;;;;4770845;30;20051;-71
2023/04/13 04:42:03;;;;;;;4.10;2.17;;;6.70;99.90;;;;;;4758765;30;19926;-71
2023/04/13 04:44:32;;;;;;;4.72;1.80;;;6.70;99.90;;;;;;4758246;30;20109;-70
2023/04/13 04:47:04;;;;;;;3.83;2.03;;;6.70;99.90;;;;;;4748011;30;20054;-71
2023/04/13 04:49:39;;;;;;;3.88;1.85;;;6.70;99.90;;;;;;4730569;30;20070;-70
2023/04/13 04:52:11;;;;;;;4.75;1.90;;;6.70;99.90;;;;;;4771997;30;20044;-71
2023/04/13 04:54:39;;;;;;;4.93;1.70;;;6.70;99.90;;;;;;4739657;30;20088;-71
2023/04/13 04:57:09;;;;;;;4.75;2.00;;;6.60;99.90;;;;;;4775287;30;20496;-71
2023/04/13 04:59:39;;;;;;;3.67;1.85;;;6.60;99.90;;;;;;4760175;30;20059;-70
2023/04/13 05:02:07;;;;;;;2.60;1.52;;;6.60;99.90;;;;;;4761153;30;20144;-70
2023/04/13 05:04:35;;;;;;;4.57;1.63;;;6.60;99.90;;;;;;4780718;30;20101;-70
2023/04/13 05:07:02;;;;;;;4.25;1.85;;;6.60;99.90;;;;;;4762983;30;20044;-71
2023/04/13 05:09:36;;;;;;;3.97;1.95;;;6.70;99.90;;;;;;4765115;30;20077;-71
2023/04/13 05:12:04;;;;;;;3.83;1.83;;;6.70;99.90;;;;;;4772835;30;20054;-71
2023/04/13 05:14:31;;;;;;;6.13;2.45;;;6.70;99.90;;;;;;4764952;30;20091;-71
2023/04/13 05:17:00;;;;;;;2.90;1.90;;;6.70;99.90;;;;;;4777566;30;20113;-71
2023/04/13 05:19:33;;;;;;;4.88;1.80;;;6.70;99.90;;;;;;4776506;30;20535;-70
2023/04/13 05:22:18;;;;;;;3.30;1.75;;;6.70;99.90;;;;;;4775370;30;20209;-71
2023/04/13 05:24:50;;;;;;;2.42;1.70;;;6.70;99.90;;;;;;4763229;30;20051;-71
2023/04/13 05:27:20;;;;;;;3.45;1.90;;;6.70;99.90;;;;;;4760420;30;20093;-70
2023/04/13 05:29:47;;;;;;;3.50;2.00;;;6.70;99.90;;;;;;4764943;30;20051;-70
2023/04/13 05:32:19;;;;;;;4.68;1.98;;;6.70;99.90;;;;;;4765224;30;20110;-70
2023/04/13 05:34:50;;;;;;;4.15;1.90;;;6.70;99.90;;;;;;4756311;30;20044;-71
2023/04/13 05:37:20;;;;;;;3.20;1.88;;;6.80;99.90;;;;;;4756911;30;20122;-71
2023/04/13 05:39:48;;;;;;;2.90;1.65;;;6.80;99.90;;;;;;4772790;30;20487;-70
2023/04/13 05:42:19;;;;;;;4.80;2.65;;;6.90;99.90;;;;;;4765679;30;20063;-70
2023/04/13 05:44:47;;;;;;;3.95;1.88;;;7.00;99.90;;;;;;4761901;30;20507;-71
2023/04/13 05:47:20;;;;;;;5.75;2.10;;;7.10;99.90;;;;;;4768823;30;20045;-68
2023/04/13 05:49:49;;;;;;;4.35;2.08;;;7.10;99.90;;;;;;4763890;30;20048;-70
2023/04/13 05:52:20;;;;;;;2.53;1.70;;;7.20;99.90;;;;;;4780163;30;20105;-69
2023/04/13 05:54:49;;;;;;;8.90;2.38;;;7.30;99.90;;;;;;4765200;30;20419;-70
2023/04/13 05:57:20;;;;;;;4.55;2.28;;;7.40;99.90;;;;;;4765533;30;20106;-70
2023/04/13 05:59:50;;;;;;;4.10;1.90;;;7.40;99.90;;;;;;4763818;30;20056;-70
2023/04/13 06:02:21;;;;;;;8.55;2.17;;;7.40;99.90;;;;;;4779430;29;20052;-70
2023/04/13 06:04:52;;;;;;;7.55;2.20;;;7.40;99.90;;;;;;4766040;30;20054;-69
2023/04/13 06:07:21;;;;;;;4.28;2.22;;;7.50;99.90;;;;;;4767266;30;20502;-70
2023/04/13 06:09:48;;;;;;;5.53;1.90;;;7.60;99.90;;;;;;4760765;30;20048;-70
2023/04/13 06:12:17;;;;;;;5.22;2.20;;;7.80;99.90;;;;;;4766865;30;20590;-70
2023/04/13 06:14:44;;;;;;;5.85;2.30;;;7.90;99.90;;;;;;4772655;30;20071;-72
2023/04/13 06:17:12;;;;;;;5.07;2.30;;;7.90;99.90;;;;;;4762416;30;20056;-70
2023/04/13 06:19:40;;;;;;;4.90;2.10;;;8.00;99.90;;;;;;4780998;30;20471;-69
2023/04/13 06:22:07;;;;;;;4.13;2.40;;;8.00;99.90;;;;;;4761069;30;20151;-71
2023/04/13 06:24:37;;;;;;;5.18;2.33;;;8.10;99.90;;;;;;4765575;30;20044;-70
2023/04/13 06:27:07;;;;;;;7.25;2.60;;;8.00;99.90;;;;;;4781172;30;20415;-69
2023/04/13 06:29:35;;;;;;;7.13;2.42;;;8.10;99.90;;;;;;4763629;30;20040;-70
2023/04/13 06:32:08;;;;;;;4.88;2.47;;;8.00;99.90;;;;;;4759296;30;20459;-71
2023/04/13 06:34:35;;;;;;;3.80;2.28;;;8.20;99.90;;;;;;4754189;30;20060;-71
2023/04/13 06:37:04;;;;;;;4.03;2.25;;;8.30;99.90;;;;;;4764233;30;20414;-70
2023/04/13 06:39:42;;;;;;;4.60;2.10;;;8.30;99.90;;;;;;4766770;30;20503;-71
2023/04/13 06:42:10;;;;;;;7.53;3.28;;;8.60;99.90;;;;;;4776380;30;20048;-70
2023/04/13 06:45:11;;;;;;;4.38;2.22;;;8.70;99.90;;;;;;4766505;30;20060;-71
2023/04/13 06:47:42;;;;;;;6.13;2.15;;;8.70;99.90;;;;;;4770130;30;20062;-71
2023/04/13 06:50:17;;;;;;;3.17;2.17;;;8.80;99.90;;;;;;4764944;30;20494;-70
2023/04/13 06:52:46;;;;;;;;;;;8.80;99.90;;;;;;4780363;30;20047;-71
2023/04/13 06:55:14;;;;;;;2.75;2.10;;;8.90;99.90;;;;;;4775176;30;20009;-72
2023/04/13 06:57:42;;;;;;;6.05;2.58;;;9.00;99.90;;;;;;4773742;30;20047;-71
2023/04/13 07:00:13;;;;;;;7.57;2.30;;;9.10;99.90;;;;;;4775013;30;20044;-71
2023/04/13 07:02:56;;;;;;;5.18;2.50;;;9.20;99.90;;;;;;4767380;30;20076;-69
2023/04/13 07:05:24;;;;;;;3.97;2.30;;;9.30;99.90;;;;;;4760229;30;20538;-70
2023/04/13 07:07:54;;;;;;;3.80;2.35;;;9.30;99.90;;;;;;4775053;30;20550;-70
2023/04/13 07:10:23;;;;;;;3.92;2.30;;;9.50;99.90;;;;;;4776108;30;20400;-71
2023/04/13 07:12:52;;;;;;;4.35;2.85;;;9.50;99.90;;;;;;4764790;30;20044;-70
2023/04/13 07:15:22;;;;;;;3.75;2.40;;;9.40;99.90;;;;;;4774575;30;20452;-70
2023/04/13 07:17:51;;;;;;;5.13;2.40;;;9.50;99.90;;;;;;4758447;30;20089;-70
2023/04/13 07:20:18;;;;;;;4.20;2.20;;;9.40;99.90;;;;;;4760127;30;20047;-72
2023/04/13 07:22:47;;;;;;;3.08;2.10;;;9.50;99.90;;;;;;4758435;30;20243;-70
2023/04/13 07:25:14;;;;;;;7.60;2.50;;;9.60;99.90;;;;;;4781899;30;20067;-68
2023/04/13 07:27:42;;;;;;;4.78;2.80;;;9.60;99.90;;;;;;4757853;30;20118;-71
2023/04/13 07:30:10;;;;;;;4.45;2.28;;;9.70;99.90;;;;;;4769521;30;20053;-72
2023/04/13 07:32:42;;;;;;;4.35;2.80;;;9.50;99.90;;;;;;4762436;30;20043;-70
2023/04/13 07:35:10;;;;;;;3.83;2.40;;;9.60;99.90;;;;;;4756568;30;20500;-72
2023/04/13 07:37:41;;;;;;;4.88;2.75;;;9.60;99.90;;;;;;4760968;30;20407;-72
2023/04/13 07:40:10;;;;;;;5.28;2.60;;;9.60;99.90;;;;;;4762700;30;20109;-71
2023/04/13 07:42:40;;;;;;;4.30;2.67;;;9.70;99.90;;;;;;4766709;30;20056;-71
2023/04/13 07:45:09;;;;;;;5.13;2.70;;;9.50;99.90;;;;;;4747880;30;20580;-72
2023/04/13 07:47:37;;;;;;;4.57;2.70;;;9.60;99.90;;;;;;4762646;30;20131;-70
2023/04/13 07:50:08;;;;;;;4.15;2.58;;;9.60;99.90;;;;;;4778050;30;20060;-69
2023/04/13 07:52:36;;;;;;;7.20;2.80;;;9.50;99.90;;;;;;4756890;30;20130;-71
2023/04/13 07:55:05;;;;;;;5.95;3.00;;;9.50;99.90;;;;;;4757050;30;20049;-71
2023/04/13 07:57:35;;;;;;;5.40;2.92;;;9.40;99.90;;;;;;4762925;30;20079;-68
2023/04/13 08:00:05;;;;;;;6.10;2.65;;;9.60;99.90;;;;;;4755214;30;20500;-70
2023/04/13 08:02:40;;;;;;;6.13;2.80;;;9.40;99.90;;;;;;4756821;30;20106;-70
2023/04/13 08:05:12;;;;;;;5.25;2.70;;;9.40;99.90;;;;;;4776469;30;20040;-70
2023/04/13 08:07:45;;;;;;;5.43;2.80;;;9.30;99.90;;;;;;4763506;30;20115;-70
2023/04/13 08:10:14;;;;;;;5.13;2.45;;;9.40;99.90;;;;;;4780113;30;20044;-68
2023/04/13 08:12:42;;;;;;;4.13;2.80;;;9.50;99.90;;;;;;4755726;30;20052;-71
2023/04/13 08:15:10;;;;;;;4.45;2.70;;;9.60;99.90;;;;;;4754510;30;20055;-70
2023/04/13 08:17:37;;;;;;;3.97;2.50;;;9.70;99.90;;;;;;4755943;30;20106;-70
2023/04/13 08:20:07;;;;;;;7.72;2.70;;;9.90;99.90;;;;;;4760630;30;20075;-71
2023/04/13 08:22:35;;;;;;;6.88;2.63;;;10.10;99.90;;;;;;4755948;30;20066;-70
2023/04/13 08:25:05;;;;;;;4.88;2.80;;;10.10;99.90;;;;;;4762746;30;20045;-70
2023/04/13 08:27:33;;;;;;;5.25;2.92;;;10.30;99.90;;;;;;4755129;30;20069;-71
2023/04/13 08:30:01;;;;;;;6.85;2.85;;;10.20;99.90;;;;;;4775351;30;20498;-69
2023/04/13 08:32:41;;;;;;;4.75;3.17;;;10.00;99.90;;;;;;4777171;30;20044;-67
2023/04/13 08:35:10;;;;;;;8.02;3.35;;;9.80;99.90;;;;;;4774946;30;20054;-67
2023/04/13 08:37:38;;;;;;;8.63;3.50;;;9.50;99.90;;;;;;4765401;30;20066;-68
2023/04/13 08:40:10;;;;;;;7.63;2.95;;;9.50;99.90;;;;;;4764131;30;20475;-68
2023/04/13 08:42:40;;;;;;;7.03;3.70;;;9.50;99.90;;;;;;4764979;30;20095;-68
2023/04/13 08:45:08;;;;;;;5.65;3.03;;;9.50;99.90;;;;;;4779258;30;20048;-69
2023/04/13 08:47:40;;;;;;;6.32;3.13;;;9.50;99.90;;;;;;4772589;30;20121;-69
2023/04/13 08:50:08;;;;;;;6.10;2.95;;;9.80;99.90;;;;;;4758369;30;20120;-68
2023/04/13 08:52:42;;;;;;;7.78;3.13;;;10.20;99.90;;;;;;4743515;30;20060;-67
2023/04/13 08:55:14;;;;;;;7.20;2.75;;;10.30;99.90;;;;;;4773603;30;20055;-64
2023/04/13 08:57:48;;;;;;;8.02;3.20;;;10.50;99.90;;;;;;4765924;30;20090;-67
2023/04/13 09:00:18;;;;;;;5.35;2.92;;;10.50;99.90;;;;;;4760872;30;20124;-65
2023/04/13 09:02:47;;;;;;;6.15;2.95;;;10.60;99.90;;;;;;4761045;30;20039;-63
2023/04/13 09:05:30;;;;;;;11.30;3.67;;;10.50;99.90;;;;;;4766282;30;20487;-67
2023/04/13 09:08:05;;;;;;;10.02;3.28;;;11.00;99.90;;;;;;4761605;30;20460;-65
2023/04/13 09:10:35;;;;;;;4.38;2.90;;;11.00;99.90;;;;;;4760980;30;20126;-67
2023/04/13 09:13:02;;;;;;;6.50;3.50;;;11.00;99.90;;;;;;4751549;30;20056;-67
2023/04/13 09:15:31;;;;;;;6.22;2.83;;;10.90;99.90;;;;;;4764389;30;20055;-65
2023/04/13 09:18:24;;;;;;;10.32;3.38;;;10.80;99.90;;;;;;4760622;30;20086;-65
2023/04/13 09:20:59;;;;;;;8.20;3.38;;;10.90;99.90;;;;;;4741194;30;20202;-69
2023/04/13 09:23:26;;;;;;;8.43;3.30;;;11.00;99.90;;;;;;4756723;30;20060;-69
2023/04/13 09:26:07;;;;;;;7.15;3.22;;;10.50;99.90;;;;;;4756298;30;20130;-71
2023/04/13 09:28:46;;;;;;;4.97;2.90;;;10.80;99.90;;;;;;4759737;30;20048;-69
2023/04/13 09:31:14;;;;;;;11.57;3.20;;;10.80;99.90;;;;;;4762454;30;20062;-66
2023/04/13 09:33:51;;;;;;;7.63;3.20;;;10.70;99.90;;;;;;4758272;30;20129;-68
2023/04/13 09:36:20;;;;;;;5.45;3.28;;;10.80;99.90;;;;;;4753180;30;20422;-69
2023/04/13 09:38:55;;;;;;;8.38;3.28;;;10.60;99.90;;;;;;4765491;30;20087;-68
2023/04/13 09:41:36;;;;;;;12.25;3.92;;;10.50;99.90;;;;;;4763775;30;20429;-68
2023/04/13 09:44:33;;;;;;;7.70;3.95;;;10.50;99.90;;;;;;4761299;30;20411;-67
2023/04/13 09:47:03;;;;;;;13.40;3.55;;;10.60;99.90;;;;;;4768297;30;20040;-64
2023/04/13 09:49:41;;;;;;;8.38;3.17;;;10.70;99.90;;;;;;4768939;30;20056;-67
2023/04/13 09:52:22;;;;;;;5.68;3.20;;;10.80;99.90;;;;;;4764021;30;20639;-68
2023/04/13 09:54:56;;;;;;;5.53;3.50;;;10.70;99.90;;;;;;4760371;30;20470;-67
2023/04/13 09:57:24;;;;;;;12.38;3.92;;;10.70;99.90;;;;;;4769338;30;20415;-68
2023/04/13 09:59:53;;;;;;;5.82;3.35;;;11.00;99.90;;;;;;4756697;30;20036;-65
2023/04/13 10:02:21;;;;;;;7.15;3.30;;;11.00;99.90;;;;;;4766143;30;20138;-66
2023/04/13 10:04:48;;;;;;;8.90;3.70;;;11.10;99.90;;;;;;4765407;30;20142;-65
2023/04/13 10:07:16;;;;;;;6.00;3.40;;;11.10;99.90;;;;;;4762746;30;20107;-68
2023/04/13 10:09:44;;;;;;;6.80;3.53;;;11.20;99.90;;;;;;4767063;30;20047;-65
2023/04/13 10:12:15;;;;;;;5.55;3.25;;;11.60;99.90;;;;;;4759856;30;20136;-68
2023/04/13 10:14:47;;;;;;;10.83;3.60;;;11.40;99.90;;;;;;4745437;30;20059;-65
2023/04/13 10:17:21;;;;;;;6.00;3.20;;;11.30;99.90;;;;;;4749651;30;20853;-68
2023/04/13 10:19:52;;;;;;;11.73;3.35;;;11.20;99.90;;;;;;4767116;30;20048;-68
2023/04/13 10:22:22;;;;;;;6.95;3.28;;;10.90;99.90;;;;;;4775395;30;20055;-66
2023/04/13 10:24:53;;;;;;;6.95;3.50;;;10.60;99.90;;;;;;4763687;30;20040;-68
2023/04/13 10:27:22;;;;;;;9.88;3.30;;;10.70;99.90;;;;;;4757226;30;20056;-67
2023/04/13 10:29:49;;;;;;;9.00;4.07;;;10.60;99.90;;;;;;4773024;30;20125;-67
2023/04/13 10:32:25;;;;;;;4.82;3.38;;;10.70;99.90;;;;;;4760803;29;20052;-67
2023/04/13 10:34:54;;;;;;;10.57;3.38;;;10.70;99.90;;;;;;4765042;30;20056;-69
2023/04/13 10:37:23;;;;;;;7.53;3.30;;;10.80;99.90;;;;;;4756110;30;20051;-68
2023/04/13 10:40:05;;;;;;;8.10;3.53;;;11.30;99.90;;;;;;4761319;30;20060;-69
2023/04/13 10:42:41;;;;;;;5.47;3.67;;;11.60;99.90;;;;;;4782563;30;20568;-69
2023/04/13 10:45:22;;;;;;;7.32;3.58;;;11.80;99.90;;;;;;4759025;30;20055;-69
2023/04/13 10:47:50;;;;;;;6.93;3.60;;;11.70;99.90;;;;;;4758405;30;20044;-69
2023/04/13 10:50:19;;;;;;;9.05;3.90;;;11.80;99.90;;;;;;4755254;30;20878;-68
2023/04/13 10:53:09;;;;;;;7.70;3.53;;;11.60;99.90;;;;;;4760935;30;20068;-67
2023/04/13 10:55:36;;;;;;;5.72;3.53;;;11.20;99.90;;;;;;4755494;30;20144;-68
2023/04/13 10:58:13;;;;;;;7.03;3.70;;;11.20;99.90;;;;;;4765313;30;20071;-68
2023/04/13 11:00:43;;;;;;;8.30;4.07;;;11.20;99.90;;;;;;4763183;30;20055;-67
2023/04/13 11:03:14;;;;;;;6.20;3.40;;;11.30;99.90;;;;;;4751114;30;20056;-69
2023/04/13 11:05:44;;;;;;;7.70;3.22;;;11.40;99.90;;;;;;4760638;30;20055;-69
2023/04/13 11:08:19;;;;;;;8.65;3.10;;;11.40;99.90;;;;;;4750478;30;20048;-68
2023/04/13 11:10:55;;;;;;;8.77;3.35;;;11.50;99.90;;;;;;4764356;30;20360;-69
2023/04/13 11:13:24;;;;;;;6.15;3.40;;;11.50;99.90;;;;;;4765736;30;20120;-68
2023/04/13 11:16:03;;;;;;;6.18;2.95;;;11.60;99.90;;;;;;4767652;30;20101;-68
2023/04/13 11:18:31;;;;;;;5.65;3.20;;;11.90;99.90;;;;;;4767057;30;20052;-68
2023/04/13 11:20:58;;;;;;;13.63;7.28;;;12.10;99.90;;;;;;4750137;30;20080;-68
2023/04/13 11:23:26;;;;;;;8.82;3.60;;;12.30;99.90;;;;;;4762434;30;20051;-68
2023/04/13 11:25:58;;;;;;;5.53;3.30;;;12.30;99.90;;;;;;4767648;30;20056;-68
2023/04/13 11:28:41;;;;;;;5.60;3.15;;;12.50;99.90;;;;;;4750101;30;20055;-68
2023/04/13 11:31:10;;;;;;;4.80;3.17;;;13.00;99.90;;;;;;4765936;30;20070;-68
2023/04/13 11:33:38;;;;;;;6.20;3.42;;;13.40;99.90;;;;;;4758984;30;20448;-66
2023/04/13 11:36:08;;;;;;;6.85;3.65;;;12.80;99.90;;;;;;4773913;30;20514;-68
2023/04/13 11:38:39;;;;;;;8.02;3.50;;;12.70;99.90;;;;;;4759880;30;20052;-69
2023/04/13 11:41:08;;;;;;;5.80;3.20;;;12.60;99.90;;;;;;4761120;30;20062;-67
2023/04/13 11:43:47;;;;;;;4.85;3.00;;;12.60;99.90;;;;;;4760597;30;20058;-69
2023/04/13 11:46:23;;;;;;;7.00;3.53;;;12.30;99.90;;;;;;4763746;30;20147;-68
2023/04/13 11:48:52;;;;;;;8.02;3.65;;;12.20;99.90;;;;;;4758664;30;20059;-67
2023/04/13 11:51:20;;;;;;;7.13;2.90;;;11.90;99.90;;;;;;4764335;30;20054;-69
2023/04/13 11:53:50;;;;;;;7.05;3.40;;;11.60;99.90;;;;;;4743537;30;20484;-68
2023/04/13 11:56:18;;;;;;;5.22;3.10;;;10.90;99.90;;;;;;4750928;30;20060;-67
2023/04/13 11:58:50;;;;;;;7.05;3.03;;;10.70;99.90;;;;;;4759537;30;20055;-69
2023/04/13 12:01:22;;;;;;;4.82;3.50;;;10.50;99.90;;;;;;4759840;30;20116;-68
2023/04/13 12:04:03;;;;;;;5.32;3.53;;;10.60;99.90;;;;;;4759521;30;20062;-68
2023/04/13 12:06:43;;;;;;;6.30;3.95;;;10.80;99.90;;;;;;4766155;29;20143;-69
2023/04/13 12:09:13;;;;;;;8.05;3.58;;;11.20;99.90;;;;;;4759932;30;20412;-69
2023/04/13 12:11:52;;;;;;;3.55;3.00;;;11.60;99.90;;;;;;4765529;30;20564;-68
2023/04/13 12:14:39;;;;;;;6.93;3.72;;;12.20;99.90;;;;;;4766745;30;20542;-68
2023/04/13 12:17:30;;;;;;;6.85;3.70;;;12.80;99.90;;;;;;4764080;30;20503;-69
2023/04/13 12:20:02;;;;;;;6.88;3.60;;;13.50;99.90;;;;;;4761492;30;20048;-67
2023/04/13 12:22:40;;;;;;;5.22;3.42;;;14.10;99.90;;;;;;4751194;30;20052;-69
2023/04/13 12:25:23;;;;;;;6.93;3.85;;;14.10;99.90;;;;;;4761246;30;20413;-68
2023/04/13 12:27:52;;;;;;;7.53;3.80;;;14.00;99.90;;;;;;4778901;30;20108;-69
2023/04/13 12:30:21;;;;;;;5.95;4.00;;;13.50;99.90;;;;;;4765067;30;20563;-68
2023/04/13 12:32:53;;;;;;;6.10;3.88;;;13.30;99.90;;;;;;4756374;30;20542;-68
2023/04/13 12:35:21;;;;;;;5.80;3.50;;;13.40;99.90;;;;;;4761081;30;20048;-68
2023/04/13 12:37:49;;;;;;;6.38;4.28;;;13.30;99.90;;;;;;4756855;30;20101;-67
2023/04/13 12:40:17;;;;;;;5.90;3.70;;;12.90;99.90;;;;;;4759300;30;20323;-67
2023/04/13 12:42:45;;;;;;;6.72;4.05;;;12.70;99.90;;;;;;4765014;30;20071;-64
2023/04/13 12:45:14;;;;;;;7.07;3.90;;;11.90;99.90;;;;;;4751138;30;20055;-69
2023/04/13 12:47:42;;;;;;;7.32;3.75;;;11.30;99.90;;;;;;4779523;30;20415;-68
2023/04/13 12:50:10;;;;;;;9.80;4.90;;;11.00;99.90;;;;;;4767803;30;20063;-68
2023/04/13 12:52:40;;;;;;;7.85;3.60;;;10.80;99.90;;;;;;4779105;30;20135;-69
2023/04/13 12:55:08;;;;;;;6.80;3.90;;;10.80;99.90;;;;;;4766215;30;20052;-69
2023/04/13 12:57:36;;;;;;;5.85;3.00;;;10.80;99.90;;;;;;4780230;30;20048;-67
2023/04/13 13:00:09;;;;;;;6.00;2.97;;;10.80;99.90;;;;;;4764779;30;20071;-69
2023/04/13 13:02:36;;;;;;;4.60;2.72;;;10.90;99.90;;;;;;4765162;30;20047;-67
2023/04/13 13:05:05;;;;;;;6.60;3.22;;;11.10;99.90;;;;;;4756556;30;20055;-68
2023/04/13 13:07:32;;;;;;;4.80;3.20;;;11.20;99.90;;;;;;4760581;30;20583;-68
2023/04/13 13:10:00;;;;;;;7.75;3.58;;;11.20;99.90;;;;;;4749217;30;20054;-68
2023/04/13 13:12:29;;;;;;;6.95;3.60;;;11.30;99.90;;;;;;4768328;30;20047;-68